CST,Max TemperatureF,Mean TemperatureF,Min TemperatureF,Max Dew PointF,MeanDew PointF,Min DewpointF,Max Humidity, Mean Humidity, Min Humidity, Max Sea Level PressureIn, Mean Sea Level PressureIn, Min Sea Level PressureIn, Max VisibilityMiles, Mean VisibilityMiles, Min VisibilityMiles, Max Wind SpeedMPH, Mean Wind SpeedMPH, Max Gust SpeedMPH,PrecipitationIn, CloudCover, Events, WindDirDegrees
2011-11-1,73,61,48,45,37,33,61,47,33,30.12,30.06,30.01,10,10,10,21,12,30,0.00,0,,183
2011-11-2,72,61,50,49,42,38,59,45,31,30.07,29.97,29.78,10,10,7,25,14,32,0.29,1,Rain,177
2011-11-3,53,45,37,52,43,36,100,91,82,30.18,29.91,29.68,10,6,2,26,14,33,0.49,8,Rain-Snow,317
2011-11-4,55,49,42,43,40,38,96,81,66,30.28,30.21,30.17,10,10,8,15,6,20,0.00,4,,51
2011-11-5,57,51,44,45,43,41,92,79,66,30.16,30.08,29.96,10,10,8,25,13,35,0.00,5,,163
2011-11-6,62,58,53,52,48,44,77,72,66,30.09,30.03,29.96,10,10,3,26,15,35,0.02,7,Rain,177
2011-11-7,65,60,54,61,56,52,97,91,84,30.16,30.09,29.94,10,7,2,21,9,31,0.96,7,Rain,159
2011-11-8,63,59,55,57,56,54,100,86,72,29.98,29.87,29.72,10,8,2,23,10,32,0.56,7,Rain,186
2011-11-9,58,48,37,57,39,29,93,70,46,30.25,29.98,29.71,10,8,2,30,14,36,0.08,6,Rain,275
2011-11-10,47,37,26,28,21,16,81,55,28,30.26,30.21,30.13,10,10,2,26,10,38,0.00,0,,282
2011-11-11,66,46,26,32,27,20,75,50,24,30.14,29.95,29.84,10,10,9,26,12,37,0.00,0,,197
2011-11-12,62,53,44,50,37,27,77,57,36,29.86,29.75,29.62,10,10,10,31,18,43,0.00,1,,188
2011-11-13,74,62,50,54,49,44,77,56,35,29.65,29.58,29.49,10,10,10,31,15,41,0.00,1,,208
2011-11-14,73,63,52,59,48,37,78,59,40,29.77,29.65,29.55,10,10,10,32,14,44,0.00,2,,225
2011-11-15,65,57,49,52,48,34,93,74,54,29.89,29.78,29.72,10,10,10,18,9,26,0.00,5,,190
2011-11-16,50,42,34,30,21,18,59,45,31,30.28,30.12,29.90,10,10,7,25,11,31,0.00,3,,349
2011-11-17,46,36,25,21,16,7,75,48,20,30.40,30.32,30.21,10,10,10,14,7,20,0.00,1,,243
2011-11-18,56,46,36,27,19,14,49,36,22,30.20,30.05,29.91,10,9,2,29,17,38,0.00,1,,178
2011-11-19,63,54,45,55,46,28,84,65,46,30.01,29.86,29.75,10,10,10,30,16,39,T,6,Rain,192
2011-11-20,52,44,35,43,36,33,100,86,71,30.22,30.15,30.02,10,4,1,15,8,18,0.53,8,Rain,29
2011-11-21,46,42,38,45,42,37,100,96,92,30.21,30.12,30.04,10,2,0,13,4,15,0.20,8,Fog-Rain-Thunderstorm,48
2011-11-22,49,47,44,46,44,42,100,93,86,30.14,29.94,29.84,10,6,2,18,11,23,0.99,8,Rain,341
2011-11-23,46,43,39,43,41,39,100,95,89,30.29,30.24,30.15,10,7,4,13,6,15,0.00,7,,221
2011-11-24,61,51,41,45,42,39,100,76,51,30.30,30.22,30.12,10,7,2,16,11,20,0.00,4,,179
2011-11-25,65,54,42,46,42,39,92,66,40,30.10,29.99,29.90,10,10,10,25,15,30,0.00,0,,182
2011-11-26,60,50,39,57,49,37,100,89,77,29.99,29.86,29.75,10,6,1,23,15,30,0.50,8,Rain,249
2011-11-27,39,36,33,36,32,27,92,84,75,30.17,30.08,29.98,10,9,4,22,12,28,T,8,,332
2011-11-28,35,33,31,28,28,27,92,84,75,30.12,30.01,29.88,10,10,8,21,12,28,T,8,Rain,347
2011-11-29,45,37,28,30,24,16,92,68,43,30.16,30.03,29.90,10,10,8,24,13,31,0.00,2,,326
2011-11-30,46,34,22,17,14,8,71,46,21,30.20,30.15,30.10,10,10,10,12,5,14,0.00,0,,218